CSUN Campus Station - National Weather Service Data Page - PST Time




                Date      RH     Dew  Seasonal     Current   Max Air   Min Air    Wind    Wind    Wind    Gust     Bar    Rain
                Time       %   Point      Rain    Air Temp     Since     Since   Speed    Gust     Dir     Dir   Press   Total
                               Deg F    Inches       Deg F  Midnight  Midnight     MPH     MPH                      mb  Inches
------------------------------------------------------------------------------------------------------------------------------
    07/25/2016 00:00      68    62.2      9.20        73.9      94.6      66.4       0       4     102      99    1012    0.00
    07/25/2016 00:10      69    62.5      9.20        73.5      73.7      73.2       2       6      93      78    1012    0.00
    07/25/2016 00:20      70    62.8      9.20        73.2      73.7      72.9       2       5      86      78    1012    0.00
    07/25/2016 00:30      71    62.8      9.20        72.9      73.7      72.6       2       4      77      88    1012    0.00
    07/25/2016 00:40      72    62.9      9.20        72.6      73.7      72.4       2       3      70      53    1012    0.00
    07/25/2016 00:50      72    62.9      9.20        72.5      73.7      72.2       1       3      73      85    1012    0.00
    07/25/2016 01:00      73    63.0      9.20        72.2      73.7      72.0       0       3      76      75    1012    0.00
    07/25/2016 01:10      74    63.0      9.20        72.0      73.7      71.8       1       3      76      68    1012    0.00
    07/25/2016 01:20      74    63.0      9.20        71.8      73.7      71.6       1       3      74      58    1012    0.00
    07/25/2016 01:30      74    63.0      9.20        71.7      73.7      71.4       1       4      67      53    1012    0.00
    07/25/2016 01:40      75    63.1      9.20        71.5      73.7      71.2       2       4      81      78    1012    0.00
    07/25/2016 01:50      75    63.1      9.20        71.3      73.7      71.1       2       4      96      83    1012    0.00
    07/25/2016 02:00      76    63.1      9.20        71.2      73.7      70.9       0       2      94      98    1012    0.00
    07/25/2016 02:10      76    63.0      9.20        71.0      73.7      70.6       0       1      90      90    1012    0.00
    07/25/2016 02:20      77    62.8      9.20        70.5      73.7      70.3       0       2     125      93    1012    0.00
    07/25/2016 02:30      77    63.0      9.20        70.4      73.7      70.2       0       2      45      31    1012    0.00
    07/25/2016 02:40      77    63.0      9.20        70.4      73.7      70.2       0       2      51      55    1012    0.00
    07/25/2016 02:50      77    62.9      9.20        70.4      73.7      70.2       0       2      89      87    1012    0.00
    07/25/2016 03:00      78    62.8      9.20        70.1      73.7      69.8       0       0      73      76    1012    0.00
    07/25/2016 03:10      79    62.5      9.20        69.4      73.7      69.0       0       0       0     287    1012    0.00
    07/25/2016 03:20      81    62.6      9.20        69.0      73.7      68.6       0       0     155     152    1012    0.00
    07/25/2016 03:30      81    62.7      9.20        68.8      73.7      68.6       0       0       0     283    1012    0.00
    07/25/2016 03:40      82    62.7      9.20        68.6      73.7      68.3       0       0       0     282    1012    0.00
    07/25/2016 03:50      83    62.9      9.20        68.5      73.7      68.3       0       0       0     200    1012    0.00
    07/25/2016 04:00      82    63.0      9.20        68.6      73.7      68.3       0       0       0     239    1012    0.00
    07/25/2016 04:10      82    62.5      9.20        68.2      73.7      67.8       0       0       0     239    1012    0.00
    07/25/2016 04:20      84    62.6      9.20        68.0      73.7      67.8       1       3     141     142    1012    0.00
    07/25/2016 04:30      83    63.1      9.20        68.4      73.7      67.8       1       3     146     146    1012    0.00
    07/25/2016 04:40      82    63.0      9.20        68.4      73.7      67.8       0       0       0     130    1012    0.00
    07/25/2016 04:50      83    62.8      9.20        68.2      73.7      67.8       0       0     325     325    1013    0.00
    07/25/2016 05:00      83    62.7      9.20        68.3      73.7      67.8       0       0     292     293    1013    0.00
    07/25/2016 05:10      82    62.6      9.20        68.2      73.7      67.8       0       1     328     354    1013    0.00
    07/25/2016 05:20      82    62.1      9.20        68.0      73.7      67.6       0       0       0     353    1013    0.00
    07/25/2016 05:30      82    62.0      9.20        67.7      73.7      67.5       0       0       0     337    1013    0.00
    07/25/2016 05:40      82    61.9      9.20        67.7      73.7      67.5       0       0       0     325    1013    0.00
    07/25/2016 05:50      82    61.9      9.20        67.7      73.7      67.5       0       0       0     296    1013    0.00
    07/25/2016 06:00      81    62.4      9.20        68.0      73.7      67.5       0       1     159     158    1013    0.00
    07/25/2016 06:10      77    62.9      9.20        69.3      73.7      67.5       0       0       0     160    1013    0.00
    07/25/2016 06:20      70    62.1      9.20        70.9      73.7      67.5       0       1     188     185    1013    0.00
    07/25/2016 06:30      70    61.9      9.20        72.1      73.7      67.5       0       1     174     177    1013    0.00
    07/25/2016 06:40      69    62.4      9.20        73.2      73.7      67.5       0       1     161     169    1013    0.00
    07/25/2016 06:50      66    62.4      9.20        73.9      74.7      67.5       0       0     175     190    1014    0.00
    07/25/2016 07:00      60    62.0      9.20        75.4      76.7      67.5       0       0       0     168    1014    0.00
    07/25/2016 07:10      47    60.3      9.20        77.9      79.2      67.5       0       0       0     216    1014    0.00
    07/25/2016 07:20      48    55.6      9.20        78.4      79.6      67.5       2       4     141     121    1014    0.00
    07/25/2016 07:30      39    54.9      9.20        78.1      79.6      67.5       2       7      84      83    1014    0.00
    07/25/2016 07:40      36    51.0      9.20        79.3      79.8      67.5       2       6     113     134    1014    0.00
    07/25/2016 07:50      31    49.6      9.20        79.8      80.6      67.5       2       5     102      98    1014    0.00
    07/25/2016 08:00      31    47.5      9.20        80.7      81.1      67.5       4       7     103      74    1014    0.00
    07/25/2016 08:10      28    46.2      9.20        81.3      81.7      67.5       3       7     114      87    1014    0.00
    07/25/2016 08:20      26    45.4      9.20        81.6      82.0      67.5       3       7     121      95    1014    0.00
    07/25/2016 08:30      26    43.7      9.20        82.4      83.1      67.5       3       7      99     115    1014    0.00
    07/25/2016 08:40      29    45.2      9.20        82.4      83.1      67.5       4       7     123      78    1014    0.00
    07/25/2016 08:50      24    45.0      9.20        83.0      83.5      67.5       3       7     106      74    1014    0.00
    07/25/2016 09:00      20    40.5      9.20        84.0      84.9      67.5       4       8      86      86    1014    0.00
    07/25/2016 09:10      21    41.1      9.20        85.0      85.7      67.5       4       8      90      64    1014    0.00
    07/25/2016 09:20      18    41.5      9.20        86.0      86.7      67.5       3       7     121      90    1014    0.00
    07/25/2016 09:30      18    41.1      9.20        85.9      86.7      67.5       4       8     117     126    1014    0.00
    07/25/2016 09:40      16    36.0      9.20        86.7      87.3      67.5       4       8     148     177    1014    0.00
    07/25/2016 09:50      15    33.7      9.20        86.7      87.6      67.5       3       8     122      95    1014    0.00
    07/25/2016 10:00      15    34.1      9.20        87.4      88.0      67.5       3       6     141     169    1014    0.00
    07/25/2016 10:10      15    35.1      9.20        88.0      88.7      67.5       3       7     147     160    1014    0.00
    07/25/2016 10:20      15    35.5      9.20        87.8      88.7      67.5       4       8     153     163    1014    0.00
    07/25/2016 10:30      15    35.9      9.20        88.9      89.5      67.5       3       7     150     139    1014    0.00
    07/25/2016 10:40      15    36.3      9.20        89.2      89.7      67.5       3       9     165     196    1014    0.00
    07/25/2016 10:50      16    38.0      9.20        89.5      90.6      67.5       4      10     137     169    1014    0.00
    07/25/2016 11:00      13    34.4      9.20        90.8      91.5      67.5       4       9     152     175    1014    0.00
    07/25/2016 11:10      15    34.8      9.20        91.4      92.0      67.5       5       9     174     192    1013    0.00
    07/25/2016 11:20      13    33.6      9.20        92.0      92.7      67.5       4       8     126     165    1013    0.00
    07/25/2016 11:30      12    32.9      9.20        92.6      93.3      67.5       5      10     168     168    1013    0.00
    07/25/2016 11:40      12    33.0      9.20        92.3      93.3      67.5       6       9     156     177    1013    0.00
    07/25/2016 11:50      11    32.4      9.20        93.1      93.7      67.5       4       9      93     118    1013    0.00
    07/25/2016 12:00      11    32.6      9.20        93.5      94.1      67.5       5       9     163     188    1013    0.00
    07/25/2016 12:10      10    33.0      9.20        94.5      95.6      67.5       3       6     106      87    1013    0.00
    07/25/2016 12:20      13    33.9      9.20        95.3      95.9      67.5       4       8     100      66    1013    0.00
    07/25/2016 12:30      12    38.0      9.20        95.3      96.1      67.5       3       9     117     110    1013    0.00
    07/25/2016 12:40      12    36.5      9.20        95.0      96.1      67.5       5       9     158     184    1013    0.00
    07/25/2016 12:50      13    34.7      9.20        94.1      96.1      67.5       4       8     179     195    1012    0.00
    07/25/2016 13:00      11    34.2      9.20        94.5      96.1      67.5       2       6     231     188    1012    0.00
    07/25/2016 13:10      11    33.5      9.20        96.4      97.0      67.5       2       5     200     161    1012    0.00
    07/25/2016 13:20      12    32.7      9.20        96.1      97.0      67.5       3       6     191     197    1012    0.00
    07/25/2016 13:30      10    32.0      9.20        96.7      97.3      67.5       3       7     116      78    1012    0.00
    07/25/2016 13:40      10    33.0      9.20        96.6      97.3      67.5       4       8     173     201    1012    0.00
    07/25/2016 13:50      10    31.9      9.20        96.3      97.3      67.5       3       8     150     174    1011    0.00
    07/25/2016 14:00       9    30.9      9.20        97.5      99.3      67.5       1       5      77     103    1011    0.00
    07/25/2016 14:10       9    30.8      9.20        98.6      99.3      67.5       2       7     207     245    1011    0.00
    07/25/2016 14:20      11    31.2      9.20        99.1      99.6      67.5       2       4     155     149    1011    0.00
    07/25/2016 14:30      10    30.9      9.20        99.0     100.0      67.5       2       6     107      80    1011    0.00
    07/25/2016 14:40       9    31.3      9.20        98.8     100.0      67.5       2       7     172     167    1011    0.00
    07/25/2016 14:50      10    31.0      9.20        99.1     100.0      67.5       3       6     239     149    1011    0.00
    07/25/2016 15:00       9    32.3      9.20        99.8     100.2      67.5       4       9     141     127    1010    0.00
    07/25/2016 15:10       9    33.8      9.20       100.2     100.7      67.5       4       7     156     133    1010    0.00
    07/25/2016 15:20       9    33.2      9.20        99.9     100.7      67.5       3       8     184     221    1010    0.00
    07/25/2016 15:30      10    33.4      9.20       100.4     101.0      67.5       3       6     180     169    1010    0.00
    07/25/2016 15:40       9    33.3      9.20       100.5     101.2      67.5       4       9     178     185    1010    0.00
    07/25/2016 15:50      11    33.3      9.20       100.9     101.5      67.5       2       6     186     164    1010    0.00
    07/25/2016 16:00      12    35.9      9.20       101.0     101.8      67.5       5      10     145     164    1010    0.00
    07/25/2016 16:10      13    38.7      9.20        99.1     101.8      67.5       5       9     149     163    1009    0.00
    07/25/2016 16:20      14    38.5      9.20        98.1     101.8      67.5       5       9     153     147    1009    0.00
    07/25/2016 16:30      13    38.8      9.20        97.8     101.8      67.5       5       9     147     143    1009    0.00
    07/25/2016 16:40      12    38.1      9.20        98.3     101.8      67.5       3       7     118     148    1009    0.00
    07/25/2016 16:50      13    37.1      9.20        98.1     101.8      67.5       4      12     104      95    1009    0.00
    07/25/2016 17:00      13    37.9      9.20        97.0     101.8      67.5       3       8     112     147    1009    0.00
    07/25/2016 17:10      15    38.7      9.20        95.4     101.8      67.5       5      11     100      68    1009    0.00
    07/25/2016 17:20      15    38.7      9.20        93.3     101.8      67.5       6      14      99      87    1009    0.00
    07/25/2016 17:30      15    38.5      9.20        92.7     101.8      67.5       4      12     103      96    1010    0.00
    07/25/2016 17:40      16    38.9      9.20        92.1     101.8      67.5       3       7     106      94    1010    0.00
    07/25/2016 17:50      16    38.6      9.20        90.8     101.8      67.5       5       9      90      95    1010    0.00
    07/25/2016 18:00      16    37.8      9.20        89.9     101.8      67.5       4       9      94      87    1010    0.00
    07/25/2016 18:10      18    38.6      9.20        89.1     101.8      67.5       4       8      89      98    1010    0.00
    07/25/2016 18:20      19    40.4      9.20        88.1     101.8      67.5       4       9      81      72    1010    0.00
    07/25/2016 18:30      21    40.8      9.20        87.3     101.8      67.5       4       9      78      93    1010    0.00
    07/25/2016 18:40      22    42.1      9.20        86.6     101.8      67.5       3       7      80      70    1010    0.00
    07/25/2016 18:50      23    42.8      9.20        85.8     101.8      67.5       4       8      79      79    1010    0.00
    07/25/2016 19:00      23    42.8      9.20        84.8     101.8      67.5       4       8      76      68    1011    0.00
    07/25/2016 19:10      23    42.4      9.20        84.1     101.8      67.5       4       7      76      87    1011    0.00
    07/25/2016 19:20      26    42.9      9.20        83.2     101.8      67.5       4       7      84      71    1011    0.00
    07/25/2016 19:30      28    44.7      9.20        82.3     101.8      67.5       4       8      84      68    1011    0.00
    07/25/2016 19:40      30    46.2      9.20        81.6     101.8      67.5       4       8      82      93    1011    0.00
    07/25/2016 19:50      30    46.4      9.20        81.0     101.8      67.5       4       8      86      80    1011    0.00
    07/25/2016 20:00      32    46.9      9.20        80.2     101.8      67.5       4       7      64      43    1011    0.00
    07/25/2016 20:10      31    46.8      9.20        79.5     101.8      67.5       3       6      66      67    1012    0.00
    07/25/2016 20:20      31    45.9      9.20        79.2     101.8      67.5       2       5      83      79    1012    0.00
    07/25/2016 20:30      32    46.4      9.20        79.1     101.8      67.5       2       4      69      81    1012    0.00
    07/25/2016 20:40      32    46.5      9.20        79.0     101.8      67.5       3       5      68      53    1012    0.00
    07/25/2016 20:50      32    46.3      9.20        78.9     101.8      67.5       2       5      59      43    1012    0.00
    07/25/2016 21:00      32    46.6      9.20        78.8     101.8      67.5       3       5      53      55    1012    0.00
    07/25/2016 21:10      33    47.1      9.20        78.7     101.8      67.5       1       4      70      55    1012    0.00
    07/25/2016 21:20      34    47.3      9.20        78.5     101.8      67.5       2       4      68      87    1012    0.00
    07/25/2016 21:30      33    47.0      9.20        78.4     101.8      67.5       2       3      76      99    1012    0.00
    07/25/2016 21:40      33    47.1      9.20        78.3     101.8      67.5       0       3      79      50    1012    0.00
    07/25/2016 21:50      33    46.6      9.20        78.0     101.8      67.5       1       3      66      52    1012    0.00
    07/25/2016 22:00      33    46.3      9.20        77.8     101.8      67.5       1       3      73      81    1012    0.00
    07/25/2016 22:10      34    46.5      9.20        77.7     101.8      67.5       0       4      68      67    1012    0.00
    07/25/2016 22:20      35    47.0      9.20        77.5     101.8      67.5       2       4      74      77    1012    0.00
    07/25/2016 22:30      37    47.9      9.20        77.3     101.8      67.5       0       3      90      88    1012    0.00
    07/25/2016 22:40      37    48.3      9.20        76.9     101.8      67.5       0       3      79      77    1012    0.00
    07/25/2016 22:50      38    49.0      9.20        77.0     101.8      67.5       2       4      92     105    1012    0.00
    07/25/2016 23:00      39    50.0      9.20        77.0     101.8      67.5       0       3      93     100    1012    0.00
    07/25/2016 23:10      39    50.1      9.20        76.9     101.8      67.5       2       5      93     108    1012    0.00
    07/25/2016 23:20      39    49.6      9.20        76.5     101.8      67.5       3       6      88      93    1012    0.00
    07/25/2016 23:30      40    50.0      9.20        76.2     101.8      67.5       2       5      77      73    1012    0.00
    07/25/2016 23:40      42    50.9      9.20        76.1     101.8      67.5       1       3      78      86    1012    0.00
    07/25/2016 23:50      43    51.7      9.20        76.1     101.8      67.5       0       3      65      68    1012    0.00
    07/26/2016 00:00      45    52.4      9.20        76.0     101.8      67.5       3       6      74      61    1012    0.00
    07/26/2016 00:10      47    53.8      9.20        75.8      76.0      75.6       2       5      71     101    1012    0.00
    07/26/2016 00:20      43    52.9      9.20        75.6      76.0      75.4       2       4      71      74    1012    0.00
    07/26/2016 00:30      39    50.0      9.20        75.6      76.0      75.3       1       4      61      57    1012    0.00
    07/26/2016 00:40      39    49.0      9.20        75.6      76.0      75.3       0       3      55      28    1012    0.00
    07/26/2016 00:50      41    49.5      9.20        75.6      76.0      75.3       2       4      47      58    1012    0.00
    07/26/2016 01:00      41    50.5      9.20        75.6      76.0      75.3       2       4      34      58    1012    0.00
    07/26/2016 01:10      41    50.2      9.20        75.6      76.0      75.3       2       4      50      41    1012    0.00
    07/26/2016 01:20      41    50.3      9.20        75.6      76.0      75.3       1       3      50      69    1012    0.00
    07/26/2016 01:30      42    50.4      9.20        75.5      76.0      75.3       0       3      60      47    1012    0.00
    07/26/2016 01:40      43    51.1      9.20        75.3      76.0      75.1       0       3      75      70    1012    0.00
    07/26/2016 01:50      45    51.6      9.20        75.0      76.0      74.7       0       3      71      29    1012    0.00
    07/26/2016 02:00      45    52.1      9.20        74.7      76.0      74.5       0       2      84      72    1012    0.00
    07/26/2016 02:10      47    52.2      9.20        74.5      76.0      74.2       0       2      89      83    1012    0.00
    07/26/2016 02:20      49    52.8      9.20        74.0      76.0      73.6       0       0     144     147    1012    0.00
    07/26/2016 02:30      48    53.0      9.20        73.3      76.0      73.0       0       2     138     143    1012    0.00
    07/26/2016 02:40      46    51.7      9.20        73.1      76.0      72.8       0       0       0     138    1012    0.00
    07/26/2016 02:50      46    50.9      9.20        72.7      76.0      72.3       0       0       0     152    1012    0.00
    07/26/2016 03:00      47    50.8      9.20        72.4      76.0      72.2       0       0       0     133    1012    0.00
    07/26/2016 03:10      49    51.3      9.20        72.3      76.0      72.2       0       0       0     207    1012    0.00
    07/26/2016 03:20      50    52.8      9.20        72.3      76.0      72.1       0       0       0      20    1012    0.00
    07/26/2016 03:30      51    52.8      9.20        72.2      76.0      72.0       0       0       0     290    1012    0.00
    07/26/2016 03:40      54    53.6      9.20        71.9      76.0      71.6       0       0       0     268    1012    0.00
    07/26/2016 03:50      50    53.2      9.20        71.8      76.0      71.6       0       0       0     279    1012    0.00
    07/26/2016 04:00      49    52.5      9.20        72.4      76.0      71.6       0       0       0      41    1012    0.00
    07/26/2016 04:10      51    53.0      9.20        72.6      76.0      71.6       0       0       0      56    1012    0.00
    07/26/2016 04:20      50    52.8      9.20        72.3      76.0      71.6       0       0       0     114    1012    0.00
    07/26/2016 04:30      54    53.8      9.20        71.9      76.0      71.5       0       0       0      75    1011    0.00
    07/26/2016 04:40      53    53.9      9.20        71.5      76.0      71.2       0       0       0     173    1011    0.00
    07/26/2016 04:50      52    52.8      9.20        71.0      76.0      70.8       0       0       0     230    1012    0.00
    07/26/2016 05:00      53    53.1      9.20        71.2      76.0      70.8       0       0       0     230    1012    0.00
    07/26/2016 05:10      53    53.2      9.20        71.1      76.0      70.8       0       0       0     301    1012    0.00
    07/26/2016 05:20      54    53.5      9.20        71.0      76.0      70.8       0       0       0     291    1012    0.00
    07/26/2016 05:30      54    53.4      9.20        71.1      76.0      70.8       0       0       0     320    1012    0.00
    07/26/2016 05:40      54    54.0      9.20        71.3      76.0      70.8       0       2     291     296    1012    0.00
    07/26/2016 05:50      52    53.8      9.20        71.4      76.0      70.8       0       0     292     290    1011    0.00
    07/26/2016 06:00      50    53.7      9.20        72.4      76.0      70.8       0       0       0     291    1011    0.00
    07/26/2016 06:10      46    52.7      9.20        73.9      76.0      70.8       0       2     260     264    1011    0.00
    07/26/2016 06:20      44    52.7      9.20        75.9      76.4      70.8       0       2     193     193    1011    0.00
    07/26/2016 06:30      45    52.8      9.20        75.6      76.4      70.8       1       3     192     183    1012    0.00
    07/26/2016 06:40      45    53.5      9.20        75.9      76.4      70.8       0       2     186     196    1012    0.00
    07/26/2016 06:50      45    53.5      9.20        76.6      77.0      70.8       0       2     173     151    1012    0.00
    07/26/2016 07:00      44    53.4      9.20        77.0      77.2      70.8       1       3     171     190    1012    0.00
    07/26/2016 07:10      43    53.3      9.20        77.1      77.5      70.8       2       3     172     195    1012    0.00
    07/26/2016 07:20      42    53.5      9.20        77.7      78.0      70.8       2       4     185     196    1012    0.00
    07/26/2016 07:30      40    53.2      9.20        78.4      79.3      70.8       1       3     172     178    1012    0.00
    07/26/2016 07:40      37    52.0      9.20        79.9      80.2      70.8       0       3     230     222    1012    0.00
    07/26/2016 07:50      34    50.3      9.20        81.0      81.7      70.8       1       4     241     249    1012    0.00
    07/26/2016 08:00      33    50.9      9.20        81.7      82.6      70.8       1       3     168     202    1012    0.00
    07/26/2016 08:10      33    51.1      9.20        82.5      83.0      70.8       2       4     181     202    1012    0.00
    07/26/2016 08:20      34    49.9      9.20        82.8      83.8      70.8       2       4     186     185    1012    0.00
    07/26/2016 08:30      29    49.8      9.20        84.0      84.6      70.8       0       4     175     173    1011    0.00
    07/26/2016 08:40      29    49.4      9.20        84.7      85.2      70.8       1       5     162     155    1011    0.00
    07/26/2016 08:50      29    50.0      9.20        85.2      86.1      70.8       2       5     157     169    1011    0.00
    07/26/2016 09:00      28    49.7      9.20        86.6      87.0      70.8       2       3     107     143    1011    0.00
    07/26/2016 09:10      26    49.0      9.20        87.3      88.1      70.8       0       4     161     160    1011    0.00
    07/26/2016 09:20      25    47.4      9.20        87.8      88.1      70.8       2       5     155     152    1011    0.00
    07/26/2016 09:30      21    46.6      9.20        88.8      89.5      70.8       2       5     161     192    1011    0.00
    07/26/2016 09:40      22    45.8      9.20        89.1      89.8      70.8       3       6     165     185    1011    0.00
    07/26/2016 09:50      18    44.0      9.20        89.9      90.3      70.8       3       5     179     160    1011    0.00
    07/26/2016 10:00      14    38.6      9.20        91.6      92.9      70.8       2       5      99      85    1011    0.00
    07/26/2016 10:10      14    37.5      9.20        92.6      93.2      70.8       3       6     151     153    1011    0.00
    07/26/2016 10:20      15    39.5      9.20        93.3      94.1      70.8       2       6     112     140    1011    0.00
    07/26/2016 10:30      14    38.4      9.20        94.0      94.4      70.8       3       7     110      99    1011    0.00
    07/26/2016 10:40      16    39.9      9.20        94.3      95.1      70.8       2       6     117     135    1011    0.00
    07/26/2016 10:50      22    45.1      9.20        94.3      95.1      70.8       4       8     101      94    1011    0.00
    07/26/2016 11:00      22    49.4      9.20        93.5      95.1      70.8       5      11     120      83    1011    0.00
    07/26/2016 11:10      19    48.2      9.20        93.5      95.1      70.8       5       9     130     118    1011    0.00
    07/26/2016 11:20      20    47.3      9.20        93.2      95.1      70.8       5      13     134     150    1011    0.00
    07/26/2016 11:30      17    45.1      9.20        94.5      95.4      70.8       4       8     122      98    1011    0.00
    07/26/2016 11:40      18    44.1      9.20        93.7      95.4      70.8       4       9     147     159    1011    0.00
    07/26/2016 11:50      17    43.5      9.20        94.8      95.4      70.8       4       8     114     150    1011    0.00
    07/26/2016 12:00      17    43.2      9.20        95.2      95.5      70.8       4       9     123     136    1011    0.00
    07/26/2016 12:10      17    43.2      9.20        95.6      96.1      70.8       4      11     107      78    1010    0.00
    07/26/2016 12:20      17    42.9      9.20        95.4      96.1      70.8       4      10     112      77    1010    0.00
    07/26/2016 12:30      16    43.5      9.20        95.5      96.1      70.8       5       9     129      72    1010    0.00
    07/26/2016 12:40      16    42.3      9.20        95.4      96.1      70.8       5      11     104     115    1010    0.00
    07/26/2016 12:50      16    42.6      9.20        96.1      96.7      70.8       4       8     104      69    1010    0.00
    07/26/2016 13:00      16    42.3      9.20        95.6      96.7      70.8       5      11     116      84    1010    0.00
    07/26/2016 13:10      15    41.6      9.20        95.7      96.7      70.8       4      11     106      83    1010    0.00
    07/26/2016 13:20      15    41.1      9.20        95.5      96.7      70.8       5      10     102     103    1010    0.00
    07/26/2016 13:30      15    41.2      9.20        96.3      96.9      70.8       4       8     116     149    1010    0.00
    07/26/2016 13:40      15    40.9      9.20        96.4      96.9      70.8       5       9      99      98    1010    0.00
    07/26/2016 13:50      14    40.9      9.20        97.6      98.5      70.8       4       9     103      88    1010    0.00
    07/26/2016 14:00      14    40.5      9.20        98.3      98.9      70.8       3       7     120     170    1010    0.00
    07/26/2016 14:10      14    39.6      9.20        98.2      98.9      70.8       4       8     107      77    1009    0.00
    07/26/2016 14:20      14    40.6      9.20        99.2     100.0      70.8       4       7     101      90    1009    0.00
    07/26/2016 14:30      14    40.8      9.20        99.0     100.3      70.8       3       8      53      97    1009    0.00
    07/26/2016 14:40      14    40.9      9.20        99.1     100.3      70.8       4       9     270     213    1009    0.00
    07/26/2016 14:50      13    41.2      9.20       100.2     100.9      70.8       4       9     243     240    1009    0.00
    07/26/2016 15:00      14    40.8      9.20        99.1     100.9      70.8       4      10     268     254    1009    0.00
    07/26/2016 15:10      15    41.8      9.20        98.8     100.9      70.8       5      12     257     239    1009    0.00
    07/26/2016 15:20      14    42.0      9.20        98.3     100.9      70.8       4      11     280     254    1009    0.00
    07/26/2016 15:30      13    40.8      9.20        98.3     100.9      70.8       5      11     276     252    1009    0.00
    07/26/2016 15:40      13    39.9      9.20        97.9     100.9      70.8       5      11     274     248    1009    0.00
    07/26/2016 15:50      14    39.9      9.20        97.1     100.9      70.8       6      11     260     246    1009    0.00
    07/26/2016 16:00      14    40.2      9.20        97.1     100.9      70.8       5      11     268     245    1009    0.00
    07/26/2016 16:10      14    38.7      9.20        96.1     100.9      70.8       7      15     261     261    1009    0.00
    07/26/2016 16:20      14    37.3      9.20        95.8     100.9      70.8       6      11     277     292    1009    0.00
    07/26/2016 16:30      14    38.6      9.20        95.7     100.9      70.8       6      13     275     243    1009    0.00
    07/26/2016 16:40      12    37.1      9.20        95.5     100.9      70.8       6      12     272     249    1009    0.00
    07/26/2016 16:50      13    35.8      9.20        95.3     100.9      70.8       6      11     266     257    1009    0.00
    07/26/2016 17:00      13    35.9      9.20        95.1     100.9      70.8       5      12     271     245    1009    0.00
    07/26/2016 17:10      13    36.5      9.20        95.3     100.9      70.8       5      10     259     242    1009    0.00
    07/26/2016 17:20      13    36.0      9.20        94.8     100.9      70.8       5      13     257     252    1009    0.00
    07/26/2016 17:30      12    35.6      9.20        94.4     100.9      70.8       4      10     263     232    1009    0.00
    07/26/2016 17:40      11    33.8      9.20        93.8     100.9      70.8       4      10     248     270    1009    0.00
    07/26/2016 17:50      12    32.6      9.20        93.3     100.9      70.8       4      11     253     258    1009    0.00
    07/26/2016 18:00      12    32.9      9.20        92.6     100.9      70.8       4      11     253     257    1009    0.00
    07/26/2016 18:10      12    32.2      9.20        92.0     100.9      70.8       5      10     250     269    1009    0.00
    07/26/2016 18:20      12    31.9      9.20        91.4     100.9      70.8       3       8     248     244    1009    0.00
    07/26/2016 18:30      11    30.3      9.20        90.7     100.9      70.8       2       8     242     252    1009    0.00
    07/26/2016 18:40      11    28.0      9.20        90.0     100.9      70.8       3       7     234     259    1009    0.00
    07/26/2016 18:50      11    27.6      9.20        89.6     100.9      70.8       4       9     254     248    1009    0.00
    07/26/2016 19:00      11    28.1      9.20        89.1     100.9      70.8       4       8     259     253    1009    0.00
    07/26/2016 19:10      11    27.6      9.20        88.4     100.9      70.8       4       8     265     262    1010    0.00
    07/26/2016 19:20      11    26.8      9.20        87.7     100.9      70.8       3       8     269     269    1010    0.00
    07/26/2016 19:30      13    28.3      9.20        86.9     100.9      70.8       3       7     258     257    1010    0.00
    07/26/2016 19:40      13    29.1      9.20        86.2     100.9      70.8       3       7     255     252    1010    0.00
    07/26/2016 19:50      14    29.5      9.20        85.7     100.9      70.8       0       4     254     233    1010    0.00
    07/26/2016 20:00      14    31.1      9.20        85.0     100.9      70.8       0       0     157     157    1010    0.00
    07/26/2016 20:10      14    31.4      9.20        84.4     100.9      70.8       0       2     143     111    1010    0.00
    07/26/2016 20:20      23    37.6      9.20        84.4     100.9      70.8       2       5     112      85    1010    0.00
    07/26/2016 20:30      25    43.5      9.20        83.7     100.9      70.8       1       5     114     134    1010    0.00
    07/26/2016 20:40      25    43.8      9.20        82.8     100.9      70.8       0       4      98      93    1011    0.00
    07/26/2016 20:50      26    43.4      9.20        82.3     100.9      70.8       1       4      91      83    1011    0.00
    07/26/2016 21:00      27    43.8      9.20        81.8     100.9      70.8       1       4      79      85    1011    0.00
    07/26/2016 21:10      30    45.2      9.20        81.3     100.9      70.8       2       5      71      42    1011    0.00
    07/26/2016 21:20      33    47.4      9.20        80.7     100.9      70.8       3       5      81     102    1011    0.00
    07/26/2016 21:30      36    49.9      9.20        80.1     100.9      70.8       3       5      91      85    1011    0.00
    07/26/2016 21:40      40    52.1      9.20        79.3     100.9      70.8       2       5      90     103    1011    0.00
    07/26/2016 21:50      41    52.5      9.20        78.6     100.9      70.8       1       3     102     106    1011    0.00
    07/26/2016 22:00      42    53.1      9.20        78.1     100.9      70.8       2       4      72      51    1011    0.00
    07/26/2016 22:10      43    53.2      9.20        77.6     100.9      70.8       0       3      60      78    1011    0.00
    07/26/2016 22:20      43    53.1      9.20        77.3     100.9      70.8       2       3      74      77    1011    0.00
    07/26/2016 22:30      44    53.1      9.20        77.0     100.9      70.8       2       3      71      82    1011    0.00
    07/26/2016 22:40      45    53.4      9.20        76.7     100.9      70.8       2       4      70      44    1011    0.00
    07/26/2016 22:50      45    53.7      9.20        76.5     100.9      70.8       0       2      73      47    1011    0.00
    07/26/2016 23:00      47    54.0      9.20        76.2     100.9      70.8       0       1     131     115    1011    0.00
    07/26/2016 23:10      48    54.1      9.20        75.7     100.9      70.8       0       1     147     147    1011    0.00
    07/26/2016 23:20      48    54.3      9.20        75.6     100.9      70.8       0       0       0     124    1011    0.00
    07/26/2016 23:30      48    54.4      9.20        75.5     100.9      70.8       0       0       0      72    1011    0.00
    07/26/2016 23:40      49    54.4      9.20        75.3     100.9      70.8       0       0       0      45    1011    0.00
    07/26/2016 23:50      50    54.4      9.20        74.8     100.9      70.8       0       0       0      23    1011    0.00
    07/27/2016 00:00      48    54.5      9.20        74.8     100.9      70.8       0       2      51      73    1011    0.00
    07/27/2016 00:10      45    53.2      9.20        75.5      75.8      75.0       0       2      56      40    1011    0.00
    07/27/2016 00:20      45    52.8      9.20        75.7      75.9      75.0       0       2      45      32    1011    0.00
    07/27/2016 00:30      42    52.2      9.20        75.6      75.9      75.0       0       3      65      53    1011    0.00
    07/27/2016 00:40      43    50.7      9.20        75.8      76.1      75.0       0       3      88      77    1011    0.00
    07/27/2016 00:50      44    51.8      9.20        75.5      76.1      75.0       0       2      80      51    1011    0.00
    07/27/2016 01:00      47    52.1      9.20        74.7      76.1      74.4       0       0       0     193    1011    0.00
    07/27/2016 01:10      47    53.0      9.20        74.3      76.1      74.0       0       0       0     130    1011    0.00
    07/27/2016 01:20      47    52.5      9.20        74.1      76.1      73.9       0       0       0     138    1011    0.00
    07/27/2016 01:30      47    52.4      9.20        74.0      76.1      73.8       0       0       0     342    1011    0.00
    07/27/2016 01:40      46    52.4      9.20        74.1      76.1      73.8       0       2      46      35    1011    0.00
    07/27/2016 01:50      44    51.8      9.20        74.5      76.1      73.8       0       2      51      58    1011    0.00
    07/27/2016 02:00      43    51.4      9.20        74.8      76.1      73.8       0       1      55      57    1011    0.00
    07/27/2016 02:10      44    51.4      9.20        74.9      76.1      73.8       0       1      59      45    1010    0.00
    07/27/2016 02:20      45    52.0      9.20        74.5      76.1      73.8       0       2      23      35    1010    0.00
    07/27/2016 02:30      45    51.6      9.20        74.2      76.1      73.8       0       0       0      92    1010    0.00
    07/27/2016 02:40      46    51.6      9.20        74.0      76.1      73.8       0       0       0      42    1010    0.00
    07/27/2016 02:50      47    51.7      9.20        73.7      76.1      73.4       0       0       0      63    1010    0.00
    07/27/2016 03:00      47    51.9      9.20        73.2      76.1      72.9       0       0       0     310    1010    0.00
    07/27/2016 03:10      48    51.9      9.20        72.8      76.1      72.5       0       0       0     306    1010    0.00
    07/27/2016 03:20      47    51.6      9.20        72.8      76.1      72.5       0       0       0     306    1010    0.00
    07/27/2016 03:30      49    51.8      9.20        72.5      76.1      72.2       0       0       0     316    1011    0.00
    07/27/2016 03:40      48    51.7      9.20        72.2      76.1      72.0       0       0       0     320    1011    0.00
    07/27/2016 03:50      51    52.2      9.20        72.0      76.1      71.7       0       0       0     320    1011    0.00
    07/27/2016 04:00      52    52.6      9.20        71.7      76.1      71.4       0       1     136     138    1011    0.00
    07/27/2016 04:10      54    53.3      9.20        71.4      76.1      71.0       0       0       0     152    1011    0.00
    07/27/2016 04:20      54    54.4      9.20        71.3      76.1      71.0       0       0       0     135    1011    0.00
    07/27/2016 04:30      54    53.5      9.20        71.4      76.1      71.0       0       0       0      21    1011    0.00
    07/27/2016 04:40      55    54.3      9.20        71.4      76.1      71.0       0       0       0     311    1011    0.00
    07/27/2016 04:50      53    54.3      9.20        71.8      76.1      71.0       0       3      31      32    1011    0.00
    07/27/2016 05:00      54    54.0      9.20        71.7      76.1      71.0       0       0       0      47    1011    0.00
    07/27/2016 05:10      55    53.9      9.20        71.3      76.1      70.9       0       0       0      64    1011    0.00
    07/27/2016 05:20      56    54.2      9.20        70.9      76.1      70.7       0       0       0      82    1011    0.00
    07/27/2016 05:30      55    54.0      9.20        70.9      76.1      70.6       0       0       0      80    1011    0.00
    07/27/2016 05:40      56    54.3      9.20        70.9      76.1      70.6       0       0       0      80    1011    0.00
    07/27/2016 05:50      52    53.8      9.20        71.5      76.1      70.6       0       0       0     328    1012    0.00
    07/27/2016 06:00      51    53.7      9.20        72.2      76.1      70.6       0       0       0     321    1012    0.00
    07/27/2016 06:10      46    53.2      9.20        73.8      76.1      70.6       0       0       0     322    1012    0.00
    07/27/2016 06:20      46    53.6      9.20        76.0      76.3      70.6       0       0      85      85    1012    0.00
    07/27/2016 06:30      42    54.0      9.20        77.8      79.1      70.6       0       0       0      89    1012    0.00
    07/27/2016 06:40      48    54.2      9.20        77.8      79.3      70.6       0       0       0     339    1012    0.00
    07/27/2016 06:50      47    54.7      9.20        76.3      79.3      70.6       0       1     180     191    1012    0.00
    07/27/2016 07:00      44    54.3      9.20        76.6      79.3      70.6       0       2     184     168    1012    0.00
    07/27/2016 07:10      41    53.0      9.20        77.8      79.3      70.6       0       0     177     175    1012    0.00
    07/27/2016 07:20      34    49.3      9.20        79.0      80.0      70.6       0       0     179     163    1012    0.00
    07/27/2016 07:30      33    48.8      9.20        80.5      81.5      70.6       0       2     159     162    1012    0.00
    07/27/2016 07:40      31    49.1      9.20        81.0      82.1      70.6       0       2     164     167    1012    0.00
    07/27/2016 07:50      33    48.6      9.20        81.7      82.4      70.6       1       3     199     184    1012    0.00
    07/27/2016 08:00      30    48.1      9.20        81.3      82.4      70.6       1       4     192     195    1012    0.00
    07/27/2016 08:10      30    48.3      9.20        82.1      82.8      70.6       0       3     168     170    1012    0.00
    07/27/2016 08:20      25    47.5      9.20        82.9      83.7      70.6       0       3     170     149    1012    0.00
    07/27/2016 08:30      26    45.5      9.20        83.7      84.1      70.6       1       4     178     178    1012    0.00
    07/27/2016 08:40      25    44.0      9.20        84.7      85.3      70.6       2       4     130     170    1012    0.00
    07/27/2016 08:50      22    42.8      9.20        84.7      85.3      70.6       2       5     166     104    1012    0.00
    07/27/2016 09:00      23    43.1      9.20        86.1      86.9      70.6       1       5     123     180    1012    0.00
    07/27/2016 09:10      22    44.6      9.20        87.0      87.7      70.6       3       6     127     144    1012    0.00
    07/27/2016 09:20      22    42.7      9.20        86.7      87.7      70.6       2       5     163     175    1012    0.00
    07/27/2016 09:30      21    40.0      9.20        88.0      88.6      70.6       2       5     131     142    1012    0.00
    07/27/2016 09:40      17    40.0      9.20        88.3      89.1      70.6       2       5     128     129    1012    0.00
    07/27/2016 09:50      15    38.3      9.20        89.8      90.3      70.6       3       7     127     133    1012    0.00
    07/27/2016 10:00      14    36.4      9.20        90.4      91.2      70.6       2       6     117     129    1012    0.00
    07/27/2016 10:10      10    34.1      9.20        91.7      92.3      70.6       2       7     128     178    1012    0.00
    07/27/2016 10:20      10    30.9      9.20        92.0      92.5      70.6       2       6     127      82    1012    0.00
    07/27/2016 10:30      12    31.3      9.20        93.2      94.1      70.6       1       5      70      99    1012    0.00
    07/27/2016 10:40      13    34.3      9.20        93.2      94.1      70.6       4       7     159     158    1012    0.00
    07/27/2016 10:50      13    35.1      9.20        93.0      94.1      70.6       2       6     191     217    1012    0.00
    07/27/2016 11:00      15    36.9      9.20        93.7      94.1      70.6       2       7      95      98    1012    0.00
    07/27/2016 11:10      14    38.7      9.20        94.3      95.1      70.6       1       4      87     102    1012    0.00
    07/27/2016 11:20      17    43.4      9.20        94.5      95.1      70.6       4      10     135     154    1012    0.00
    07/27/2016 11:30      18    43.4      9.20        94.6      95.2      70.6       2       7     113     155    1012    0.00
    07/27/2016 11:40      18    45.2      9.20        93.8      95.2      70.6       4       8     142     198    1012    0.00
    07/27/2016 11:50      18    44.7      9.20        94.7      95.3      70.6       4       7     154     162    1012    0.00
    07/27/2016 12:00      17    43.4      9.20        94.8      95.5      70.6       3       6     107      82    1012    0.00
    07/27/2016 12:10      17    44.2      9.20        95.7      96.5      70.6       4       8     132      70    1011    0.00
    07/27/2016 12:20      15    43.1      9.20        96.7      97.3      70.6       4       7     140     127    1011    0.00
    07/27/2016 12:30      17    42.8      9.20        96.5      97.5      70.6       4       7     144     170    1011    0.00
    07/27/2016 12:40      15    42.6      9.20        96.3      97.5      70.6       4       9     129     161    1011    0.00
    07/27/2016 12:50      17    43.0      9.20        97.2      97.8      70.6       4       9     134     141    1011    0.00
    07/27/2016 13:00      15    42.5      9.20        97.9      98.2      70.6       3       7     107      86    1011    0.00
    07/27/2016 13:10      15    42.6      9.20        97.9      98.4      70.6       4       9     129     146    1011    0.00
    07/27/2016 13:20      14    42.5      9.20        97.8      98.5      70.6       4       9     127     161    1011    0.00
    07/27/2016 13:30      17    42.1      9.20        98.1      98.6      70.6       4       9     127     111    1011    0.00
    07/27/2016 13:40      14    41.4      9.20        98.5      99.1      70.6       4      10     124     141    1011    0.00
    07/27/2016 13:50      14    40.9      9.20        98.6      99.1      70.6       4       8     114     141    1011    0.00
    07/27/2016 14:00      12    39.5      9.20        98.4      99.1      70.6       4      10     101      90    1010    0.00
    07/27/2016 14:10      13    38.8      9.20        98.3      99.1      70.6       4       9     106      78    1010    0.00
    07/27/2016 14:20      14    39.4      9.20        98.7      99.2      70.6       5      11     118     114    1011    0.00
    07/27/2016 14:30      14    39.7      9.20        98.3      99.2      70.6       5      12     105      95    1010    0.00
    07/27/2016 14:40      14    40.3      9.20        97.0      99.2      70.6       5      12     100      88    1010    0.00
    07/27/2016 14:50      14    40.8      9.20        97.8      99.2      70.6       3       6      92      80    1011    0.00
    07/27/2016 15:00      14    41.4      9.20        97.9      99.2      70.6       2       6     103      76    1011    0.00
    07/27/2016 15:10      14    40.7      9.20        97.8      99.2      70.6       2       7      93     133    1011    0.00
    07/27/2016 15:20      15    41.2      9.20        96.6      99.2      70.6       3       6     152     155    1011    0.00
    07/27/2016 15:30      11    38.4      9.20        96.6      99.2      70.6       2       6      97     128    1010    0.00
    07/27/2016 15:40      11    34.4      9.20        98.1      99.2      70.6       3       8     284     294    1010    0.00
    07/27/2016 15:50      11    34.5      9.20        98.2      99.2      70.6       4      11     266     246    1010    0.00
    07/27/2016 16:00      12    34.6      9.20        97.4      99.2      70.6       5      12     272     251    1010    0.00
    07/27/2016 16:10      12    35.4      9.20        97.4      99.2      70.6       3       7     272     241    1010    0.00
    07/27/2016 16:20      12    35.9      9.20        97.0      99.2      70.6       5      11     271     258    1010    0.00
    07/27/2016 16:30      12    35.4      9.20        96.4      99.2      70.6       4       8     280     234    1010    0.00
    07/27/2016 16:40      12    34.9      9.20        96.0      99.2      70.6       6      13     260     252    1010    0.00
    07/27/2016 16:50      12    34.9      9.20        95.7      99.2      70.6       5      12     266     254    1010    0.00
    07/27/2016 17:00      11    34.2      9.20        95.3      99.2      70.6       5      11     282     282    1010    0.00
    07/27/2016 17:10      12    33.6      9.20        94.6      99.2      70.6       5      10     275     295    1010    0.00
    07/27/2016 17:20      13    34.5      9.20        94.1      99.2      70.6       5      11     280     295    1010    0.00
    07/27/2016 17:30      13    34.5      9.20        93.5      99.2      70.6       5      10     273     261    1010    0.00
    07/27/2016 17:40      13    35.3      9.20        92.7      99.2      70.6       6      11     276     286    1010    0.00
    07/27/2016 17:50      13    33.6      9.20        91.6      99.2      70.6       7      13     262     254    1010    0.00
    07/27/2016 18:00      13    33.4      9.20        91.1      99.2      70.6       4       9     284     285    1010    0.00
    07/27/2016 18:10      14    34.1      9.20        90.6      99.2      70.6       5       9     283     249    1010    0.00
    07/27/2016 18:20      13    33.4      9.20        90.1      99.2      70.6       5      11     278     272    1010    0.00
    07/27/2016 18:30      14    32.6      9.20        89.3      99.2      70.6       5      10     275     245    1010    0.00
    07/27/2016 18:40      15    33.8      9.20        88.5      99.2      70.6       4       9     268     255    1010    0.00
    07/27/2016 18:50      16    34.6      9.20        87.9      99.2      70.6       4       8     262     255    1010    0.00
    07/27/2016 19:00      15    34.5      9.20        87.3      99.2      70.6       4      10     263     256    1010    0.00
    07/27/2016 19:10      15    34.3      9.20        86.8      99.2      70.6       3       7     263     252    1010    0.00
    07/27/2016 19:20      15    33.1      9.20        86.4      99.2      70.6       3       9     269     241    1010    0.00
    07/27/2016 19:30      16    32.9      9.20        85.9      99.2      70.6       2       8     264     255    1010    0.00
    07/27/2016 19:40      15    32.6      9.20        85.2      99.2      70.6       2       7     240     259    1011    0.00
    07/27/2016 19:50      16    33.0      9.20        83.9      99.2      70.6       2       3     197     185    1011    0.00
    07/27/2016 20:00      17    33.0      9.20        83.4      99.2      70.6       0       3     225     186    1011    0.00
    07/27/2016 20:10      17    33.6      9.20        83.1      99.2      70.6       0       1     240     252    1011    0.00
    07/27/2016 20:20      16    33.2      9.20        82.6      99.2      70.6       0       1     187     188    1011    0.00
    07/27/2016 20:30      16    31.6      9.20        82.1      99.2      70.6       0       0       0     206    1011    0.00
    07/27/2016 20:40      16    33.2      9.20        82.4      99.2      70.6       0       2     193     159    1011    0.00
    07/27/2016 20:50      21    34.7      9.20        82.4      99.2      70.6       2       3     181     180    1011    0.00
    07/27/2016 21:00      21    37.9      9.20        81.8      99.2      70.6       2       4     192     195    1011    0.00
    07/27/2016 21:10      22    38.3      9.20        81.6      99.2      70.6       0       3     232     202    1011    0.00
    07/27/2016 21:20      23    38.9      9.20        81.6      99.2      70.6       0       0       0     187    1011    0.00
    07/27/2016 21:30      21    39.2      9.20        81.5      99.2      70.6       0       2     152     179    1011    0.00
    07/27/2016 21:40      28    39.5      9.20        81.9      99.2      70.6       0       2     124     150    1011    0.00
    07/27/2016 21:50      34    48.8      9.20        81.7      99.2      70.6       2       5      93      79    1011    0.00
    07/27/2016 22:00      39    51.8      9.20        81.0      99.2      70.6       1       4      99     108    1011    0.00
    07/27/2016 22:10      41    53.5      9.20        80.2      99.2      70.6       1       5      98      93    1011    0.00
    07/27/2016 22:20      43    54.3      9.20        79.5      99.2      70.6       2       4      87      76    1011    0.00
    07/27/2016 22:30      45    55.2      9.20        78.8      99.2      70.6       0       4     110     135    1011    0.00
    07/27/2016 22:40      46    55.6      9.20        78.3      99.2      70.6       2       5     101      99    1011    0.00
    07/27/2016 22:50      47    55.7      9.20        77.7      99.2      70.6       2       4      79      94    1011    0.00
    07/27/2016 23:00      48    55.8      9.20        77.2      99.2      70.6       2       5      70      69    1011    0.00
    07/27/2016 23:10      48    55.6      9.20        76.9      99.2      70.6       1       4      73      86    1011    0.00
    07/27/2016 23:20      48    55.4      9.20        76.7      99.2      70.6       0       3      59      48    1011    0.00
    07/27/2016 23:30      48    55.2      9.20        76.4      99.2      70.6       0       4      67      43    1011    0.00
    07/27/2016 23:40      47    55.0      9.20        76.3      99.2      70.6       1       3      66     106    1011    0.00
    07/27/2016 23:50      49    54.8      9.20        76.2      99.2      70.6       2       5      70      81    1011    0.00
    07/28/2016 00:00      50    55.9      9.20        76.0      99.2      70.6       2       5      46      46    1011    0.00
    07/28/2016 00:10      51    56.1      9.20        75.7      75.9      75.5       1       4      35       8    1011    0.00
    07/28/2016 00:20      51    55.6      9.20        75.5      75.9      75.3       0       4      40      30    1011    0.00
    07/28/2016 00:30      50    55.9      9.20        75.3      75.9      75.1       0       3      32     354    1011    0.00
    07/28/2016 00:40      49    55.0      9.20        75.3      75.9      75.1       0       3      27     323    1011    0.00
    07/28/2016 00:50      47    54.0      9.20        75.2      75.9      75.1       1       4      19      24    1011    0.00
    07/28/2016 01:00      47    53.7      9.20        75.3      75.9      75.1       1       4      60      40    1011    0.00
    07/28/2016 01:10      48    53.9      9.20        75.1      75.9      74.8       2       4      57      50    1011    0.00
    07/28/2016 01:20      49    54.0      9.20        74.7      75.9      74.5       2       5      64      52    1011    0.00
    07/28/2016 01:30      50    54.3      9.20        74.3      75.9      74.1       2       5      72     102    1011    0.00
    07/28/2016 01:40      48    53.8      9.20        74.2      75.9      73.9       2       5      93      89    1011    0.00
    07/28/2016 01:50      49    53.6      9.20        74.1      75.9      73.9       0       3      82      90    1011    0.00
    07/28/2016 02:00      50    54.0      9.20        73.9      75.9      73.7       0       2      71      43    1011    0.00
    07/28/2016 02:10      51    54.3      9.20        73.5      75.9      73.1       0       0      82      82    1011    0.00
    07/28/2016 02:20      54    54.9      9.20        73.1      75.9      72.8       0       2      92     105    1011    0.00
    07/28/2016 02:30      52    55.0      9.20        73.2      75.9      72.8       0       3      68      70    1011    0.00
    07/28/2016 02:40      51    54.2      9.20        73.5      75.9      72.8       1       3      71      68    1011    0.00
    07/28/2016 02:50      51    54.0      9.20        73.3      75.9      72.8       0       2      87      95    1011    0.00
    07/28/2016 03:00      52    54.2      9.20        73.1      75.9      72.8       0       1      56      45    1011    0.00
    07/28/2016 03:10      53    54.4      9.20        72.9      75.9      72.5       0       0      54      54    1011    0.00
    07/28/2016 03:20      55    54.5      9.20        72.5      75.9      72.2       0       0       0      32    1011    0.00
    07/28/2016 03:30      56    55.1      9.20        71.8      75.9      71.3       0       0       0      -0    1011    0.00
    07/28/2016 03:40      56    55.2      9.20        71.3      75.9      71.1       0       3      80      76    1011    0.00
    07/28/2016 03:50      55    55.3      9.20        72.2      75.9      71.1       0       2      78      95    1011    0.00
    07/28/2016 04:00      56    55.3      9.20        72.3      75.9      71.1       0       2      66      71    1011    0.00
    07/28/2016 04:10      57    55.7      9.20        72.1      75.9      71.1       0       2      74      71    1011    0.00
    07/28/2016 04:20      57    55.9      9.20        72.0      75.9      71.1       0       2      64      66    1011    0.00
    07/28/2016 04:30      59    56.5      9.20        71.9      75.9      71.1       0       0       0      79    1011    0.00
    07/28/2016 04:40      60    56.5      9.20        71.5      75.9      71.1       0       3      52      57    1011    0.00
    07/28/2016 04:50      59    56.6      9.20        71.6      75.9      71.1       2       3      51      66    1011    0.00
    07/28/2016 05:00      60    56.9      9.20        71.6      75.9      71.1       0       3      52      41    1011    0.00
    07/28/2016 05:10      61    57.1      9.20        71.5      75.9      71.1       1       3      56      55    1011    0.00
    07/28/2016 05:20      62    57.4      9.20        71.4      75.9      71.1       0       3      77      78    1012    0.00
    07/28/2016 05:30      63    57.7      9.20        71.2      75.9      71.0       0       3      64      61    1012    0.00
    07/28/2016 05:40      62    57.8      9.20        71.2      75.9      71.0       0       3      41      53    1012    0.00
    07/28/2016 05:50      61    57.6      9.20        71.3      75.9      71.0       0       3      45      50    1012    0.00
    07/28/2016 06:00      57    56.9      9.20        72.2      75.9      71.0       0       3      75      73    1012    0.00
    07/28/2016 06:10      54    56.1      9.20        73.2      75.9      71.0       1       3      68      41    1012    0.00
    07/28/2016 06:20      54    56.0      9.20        73.7      75.9      71.0       1       3      80      84    1012    0.00
    07/28/2016 06:30      54    56.4      9.20        74.3      75.9      71.0       0       2     126     161    1012    0.00
    07/28/2016 06:40      55    56.5      9.20        73.5      75.9      71.0       2       3     164     149    1012    0.00
    07/28/2016 06:50      51    56.2      9.20        74.2      75.9      71.0       0       3     170     178    1012    0.00
    07/28/2016 07:00      50    54.9      9.20        75.0      75.9      71.0       0       2     156     155    1012    0.00
    07/28/2016 07:10      48    55.3      9.20        75.8      76.1      71.0       0       2     256     198    1012    0.00
    07/28/2016 07:20      44    54.7      9.20        76.3      76.8      71.0       0       1     273     264    1012    0.00
    07/28/2016 07:30      42    54.3      9.20        78.2      79.6      71.0       0       0       0     262    1012    0.00
    07/28/2016 07:40      41    54.3      9.20        79.6      80.1      71.0       0       1     156     178    1012    0.00
    07/28/2016 07:50      39    53.8      9.20        80.0      80.4      71.0       2       3     128      88    1012    0.00
    07/28/2016 08:00      36    52.0      9.20        79.6      80.4      71.0       0       3     196     159    1012    0.00
    07/28/2016 08:10      34    50.2      9.20        80.6      81.0      71.0       0       3     141     108    1012    0.00
    07/28/2016 08:20      30    49.8      9.20        80.7      81.0      71.0       2       5     163     141    1012    0.00
    07/28/2016 08:30      33    48.1      9.20        81.6      82.0      71.0       1       4     140     130    1012    0.00
    07/28/2016 08:40      32    49.2      9.20        82.1      82.7      71.0       1       5     110      90    1012    0.00
    07/28/2016 08:50      29    49.4      9.20        83.1      83.9      71.0       2       6     107     139    1012    0.00
    07/28/2016 09:00      28    47.6      9.20        84.0      84.2      71.0       2       5     108      90    1012    0.00
    07/28/2016 09:10      24    46.6      9.20        84.0      84.5      71.0       4       8      81      99    1012    0.00
    07/28/2016 09:20      24    43.8      9.20        85.0      85.5      71.0       3       8      91      92    1012    0.00
    07/28/2016 09:30      23    44.7      9.20        85.4      85.8      71.0       3       8     117      97    1012    0.00
    07/28/2016 09:40      24    44.9      9.20        85.8      86.1      71.0       4       7      87      79    1012    0.00
    07/28/2016 09:50      23    44.9      9.20        86.7      87.3      71.0       3       8      98     127    1012    0.00
    07/28/2016 10:00      22    44.4      9.20        87.0      87.7      71.0       4       8      98      84    1012    0.00
    07/28/2016 10:10      18    42.0      9.20        88.3      88.7      71.0       3       6     126     176    1012    0.00